sensor_id;sensor_type;location;lat;lon;timestamp;P1;durP1;ratioP1;P2;durP2;ratioP2
11267;SDS011;49397;47.474;9.416;2022-11-20T00:00:03;6.60;;;4.67;;
11267;SDS011;49397;47.474;9.416;2022-11-20T00:02:29;5.70;;;3.97;;
11267;SDS011;49397;47.474;9.416;2022-11-20T00:04:54;4.33;;;4.03;;
11267;SDS011;49397;47.474;9.416;2022-11-20T00:07:20;5.37;;;4.20;;
11267;SDS011;49397;47.474;9.416;2022-11-20T00:09:45;5.23;;;4.47;;
11267;SDS011;49397;47.474;9.416;2022-11-20T00:12:11;6.77;;;4.43;;
11267;SDS011;49397;47.474;9.416;2022-11-20T00:14:36;4.30;;;3.97;;
11267;SDS011;49397;47.474;9.416;2022-11-20T00:17:02;5.47;;;4.40;;
11267;SDS011;49397;47.474;9.416;2022-11-20T00:19:27;5.10;;;4.03;;
11267;SDS011;49397;47.474;9.416;2022-11-20T00:21:52;6.67;;;3.80;;
11267;SDS011;49397;47.474;9.416;2022-11-20T00:24:20;4.90;;;3.30;;
11267;SDS011;49397;47.474;9.416;2022-11-20T00:26:46;4.50;;;4.13;;
11267;SDS011;49397;47.474;9.416;2022-11-20T00:29:12;5.10;;;4.07;;
11267;SDS011;49397;47.474;9.416;2022-11-20T00:31:37;5.40;;;3.80;;
11267;SDS011;49397;47.474;9.416;2022-11-20T00:34:03;4.57;;;3.47;;
11267;SDS011;49397;47.474;9.416;2022-11-20T00:36:28;3.83;;;3.20;;
11267;SDS011;49397;47.474;9.416;2022-11-20T00:38:57;3.90;;;3.60;;
11267;SDS011;49397;47.474;9.416;2022-11-20T00:41:24;4.63;;;3.70;;
11267;SDS011;49397;47.474;9.416;2022-11-20T00:43:52;4.07;;;3.33;;
11267;SDS011;49397;47.474;9.416;2022-11-20T00:46:20;4.33;;;3.60;;
11267;SDS011;49397;47.474;9.416;2022-11-20T00:48:50;5.00;;;3.87;;
11267;SDS011;49397;47.474;9.416;2022-11-20T00:51:20;5.10;;;3.90;;
11267;SDS011;49397;47.474;9.416;2022-11-20T00:53:46;3.73;;;3.43;;
11267;SDS011;49397;47.474;9.416;2022-11-20T00:56:13;4.40;;;4.00;;
11267;SDS011;49397;47.474;9.416;2022-11-20T00:58:40;3.80;;;3.50;;
11267;SDS011;49397;47.474;9.416;2022-11-20T01:03:36;3.90;;;3.47;;
11267;SDS011;49397;47.474;9.416;2022-11-20T01:06:04;3.50;;;3.20;;
11267;SDS011;49397;47.474;9.416;2022-11-20T01:08:35;4.10;;;3.50;;
11267;SDS011;49397;47.474;9.416;2022-11-20T01:11:02;4.33;;;3.80;;
11267;SDS011;49397;47.474;9.416;2022-11-20T01:13:30;3.90;;;3.40;;
11267;SDS011;49397;47.474;9.416;2022-11-20T01:16:21;4.57;;;4.03;;
11267;SDS011;49397;47.474;9.416;2022-11-20T01:18:53;4.13;;;3.63;;
11267;SDS011;49397;47.474;9.416;2022-11-20T01:21:21;5.00;;;3.80;;
11267;SDS011;49397;47.474;9.416;2022-11-20T01:23:49;3.53;;;3.23;;
11267;SDS011;49397;47.474;9.416;2022-11-20T01:26:17;3.17;;;2.93;;
11267;SDS011;49397;47.474;9.416;2022-11-20T01:28:44;3.97;;;3.57;;
11267;SDS011;49397;47.474;9.416;2022-11-20T01:31:18;6.07;;;3.70;;
11267;SDS011;49397;47.474;9.416;2022-11-20T01:33:50;4.40;;;3.90;;
11267;SDS011;49397;47.474;9.416;2022-11-20T01:36:18;6.20;;;3.73;;
11267;SDS011;49397;47.474;9.416;2022-11-20T01:38:46;4.73;;;3.80;;
11267;SDS011;49397;47.474;9.416;2022-11-20T01:41:13;4.47;;;3.73;;
11267;SDS011;49397;47.474;9.416;2022-11-20T01:44:00;4.30;;;3.90;;
11267;SDS011;49397;47.474;9.416;2022-11-20T01:46:25;4.40;;;4.00;;
11267;SDS011;49397;47.474;9.416;2022-11-20T01:49:27;5.50;;;3.70;;
11267;SDS011;49397;47.474;9.416;2022-11-20T01:52:00;3.60;;;3.30;;
11267;SDS011;49397;47.474;9.416;2022-11-20T01:54:34;3.90;;;3.60;;
11267;SDS011;49397;47.474;9.416;2022-11-20T01:57:03;6.30;;;4.20;;
11267;SDS011;49397;47.474;9.416;2022-11-20T01:59:34;4.90;;;3.40;;
11267;SDS011;49397;47.474;9.416;2022-11-20T02:02:04;5.60;;;4.00;;
11267;SDS011;49397;47.474;9.416;2022-11-20T02:04:29;5.87;;;3.33;;
11267;SDS011;49397;47.474;9.416;2022-11-20T02:06:57;3.93;;;3.60;;
11267;SDS011;49397;47.474;9.416;2022-11-20T02:09:26;3.60;;;3.30;;
11267;SDS011;49397;47.474;9.416;2022-11-20T02:11:52;3.90;;;3.60;;
11267;SDS011;49397;47.474;9.416;2022-11-20T02:14:19;4.87;;;3.60;;
11267;SDS011;49397;47.474;9.416;2022-11-20T02:16:46;3.73;;;3.43;;
11267;SDS011;49397;47.474;9.416;2022-11-20T02:19:31;4.47;;;3.40;;
11267;SDS011;49397;47.474;9.416;2022-11-20T02:24:37;3.67;;;3.37;;
11267;SDS011;49397;47.474;9.416;2022-11-20T02:27:04;3.53;;;3.23;;
11267;SDS011;49397;47.474;9.416;2022-11-20T02:29:35;3.87;;;3.47;;
11267;SDS011;49397;47.474;9.416;2022-11-20T02:32:04;5.87;;;3.07;;
11267;SDS011;49397;47.474;9.416;2022-11-20T02:34:30;3.90;;;3.60;;
11267;SDS011;49397;47.474;9.416;2022-11-20T02:36:56;7.47;;;3.40;;
11267;SDS011;49397;47.474;9.416;2022-11-20T02:39:23;3.57;;;3.27;;
11267;SDS011;49397;47.474;9.416;2022-11-20T02:41:51;5.03;;;3.57;;
11267;SDS011;49397;47.474;9.416;2022-11-20T02:44:19;4.13;;;3.80;;
11267;SDS011;49397;47.474;9.416;2022-11-20T02:46:45;7.23;;;3.80;;
11267;SDS011;49397;47.474;9.416;2022-11-20T02:49:11;3.23;;;3.03;;
11267;SDS011;49397;47.474;9.416;2022-11-20T02:51:36;4.60;;;3.87;;
11267;SDS011;49397;47.474;9.416;2022-11-20T02:54:02;4.47;;;3.50;;
11267;SDS011;49397;47.474;9.416;2022-11-20T02:56:28;5.40;;;4.03;;
11267;SDS011;49397;47.474;9.416;2022-11-20T02:58:54;4.50;;;3.97;;
11267;SDS011;49397;47.474;9.416;2022-11-20T03:01:19;4.87;;;3.67;;
11267;SDS011;49397;47.474;9.416;2022-11-20T03:03:45;4.57;;;4.17;;
11267;SDS011;49397;47.474;9.416;2022-11-20T03:06:10;4.20;;;3.80;;
11267;SDS011;49397;47.474;9.416;2022-11-20T03:08:36;6.37;;;4.27;;
11267;SDS011;49397;47.474;9.416;2022-11-20T03:11:02;4.73;;;4.23;;
11267;SDS011;49397;47.474;9.416;2022-11-20T03:13:30;4.10;;;3.70;;
11267;SDS011;49397;47.474;9.416;2022-11-20T03:15:55;4.27;;;3.97;;
11267;SDS011;49397;47.474;9.416;2022-11-20T03:18:21;6.13;;;3.53;;
11267;SDS011;49397;47.474;9.416;2022-11-20T03:20:46;4.23;;;3.87;;
11267;SDS011;49397;47.474;9.416;2022-11-20T03:23:11;6.67;;;3.90;;
11267;SDS011;49397;47.474;9.416;2022-11-20T03:25:37;6.47;;;4.30;;
11267;SDS011;49397;47.474;9.416;2022-11-20T03:28:02;4.40;;;3.53;;
11267;SDS011;49397;47.474;9.416;2022-11-20T03:30:28;4.23;;;3.83;;
11267;SDS011;49397;47.474;9.416;2022-11-20T03:32:54;3.80;;;3.43;;
11267;SDS011;49397;47.474;9.416;2022-11-20T03:35:19;3.70;;;3.40;;
11267;SDS011;49397;47.474;9.416;2022-11-20T03:37:45;3.67;;;3.37;;
11267;SDS011;49397;47.474;9.416;2022-11-20T03:40:10;4.00;;;3.63;;
11267;SDS011;49397;47.474;9.416;2022-11-20T03:42:36;4.27;;;3.87;;
11267;SDS011;49397;47.474;9.416;2022-11-20T03:45:11;4.03;;;3.70;;
11267;SDS011;49397;47.474;9.416;2022-11-20T03:47:38;4.80;;;3.97;;
11267;SDS011;49397;47.474;9.416;2022-11-20T03:50:04;4.17;;;3.43;;
11267;SDS011;49397;47.474;9.416;2022-11-20T03:52:29;4.80;;;3.83;;
11267;SDS011;49397;47.474;9.416;2022-11-20T03:54:55;3.60;;;3.30;;
11267;SDS011;49397;47.474;9.416;2022-11-20T03:57:21;4.00;;;3.60;;
11267;SDS011;49397;47.474;9.416;2022-11-20T03:59:47;4.90;;;3.30;;
11267;SDS011;49397;47.474;9.416;2022-11-20T04:02:13;4.03;;;3.57;;
11267;SDS011;49397;47.474;9.416;2022-11-20T04:04:38;5.37;;;4.00;;
11267;SDS011;49397;47.474;9.416;2022-11-20T04:07:04;4.17;;;3.77;;
11267;SDS011;49397;47.474;9.416;2022-11-20T04:09:29;4.43;;;3.97;;
11267;SDS011;49397;47.474;9.416;2022-11-20T04:11:54;4.17;;;3.37;;
11267;SDS011;49397;47.474;9.416;2022-11-20T04:14:20;4.37;;;2.93;;
11267;SDS011;49397;47.474;9.416;2022-11-20T04:16:45;4.90;;;3.67;;
11267;SDS011;49397;47.474;9.416;2022-11-20T04:19:12;3.37;;;3.10;;
11267;SDS011;49397;47.474;9.416;2022-11-20T04:21:40;5.83;;;3.53;;
11267;SDS011;49397;47.474;9.416;2022-11-20T04:24:06;3.53;;;3.23;;
11267;SDS011;49397;47.474;9.416;2022-11-20T04:26:32;3.20;;;2.87;;
11267;SDS011;49397;47.474;9.416;2022-11-20T04:28:59;4.00;;;3.23;;
11267;SDS011;49397;47.474;9.416;2022-11-20T04:31:28;4.80;;;3.43;;
11267;SDS011;49397;47.474;9.416;2022-11-20T04:33:55;3.77;;;3.47;;
11267;SDS011;49397;47.474;9.416;2022-11-20T04:36:21;3.70;;;3.40;;
11267;SDS011;49397;47.474;9.416;2022-11-20T04:38:51;3.73;;;3.43;;
11267;SDS011;49397;47.474;9.416;2022-11-20T04:41:21;3.93;;;3.60;;
11267;SDS011;49397;47.474;9.416;2022-11-20T04:43:49;3.93;;;3.53;;
11267;SDS011;49397;47.474;9.416;2022-11-20T04:46:17;4.00;;;3.70;;
11267;SDS011;49397;47.474;9.416;2022-11-20T04:48:44;3.40;;;3.10;;
11267;SDS011;49397;47.474;9.416;2022-11-20T04:51:09;3.60;;;3.30;;
11267;SDS011;49397;47.474;9.416;2022-11-20T04:53:35;3.37;;;3.07;;
11267;SDS011;49397;47.474;9.416;2022-11-20T04:56:04;4.13;;;3.30;;
11267;SDS011;49397;47.474;9.416;2022-11-20T04:58:32;3.07;;;2.87;;
11267;SDS011;49397;47.474;9.416;2022-11-20T05:01:17;5.70;;;3.20;;
11267;SDS011;49397;47.474;9.416;2022-11-20T05:03:44;5.30;;;3.30;;
11267;SDS011;49397;47.474;9.416;2022-11-20T05:06:11;3.83;;;3.40;;
11267;SDS011;49397;47.474;9.416;2022-11-20T05:08:38;3.77;;;3.33;;
11267;SDS011;49397;47.474;9.416;2022-11-20T05:11:05;3.00;;;2.77;;
11267;SDS011;49397;47.474;9.416;2022-11-20T05:13:31;3.53;;;3.23;;
11267;SDS011;49397;47.474;9.416;2022-11-20T05:16:01;4.47;;;3.23;;
11267;SDS011;49397;47.474;9.416;2022-11-20T05:18:28;3.77;;;3.10;;
11267;SDS011;49397;47.474;9.416;2022-11-20T05:20:54;4.20;;;2.83;;
11267;SDS011;49397;47.474;9.416;2022-11-20T05:23:21;3.50;;;3.20;;
11267;SDS011;49397;47.474;9.416;2022-11-20T05:25:46;3.60;;;3.30;;
11267;SDS011;49397;47.474;9.416;2022-11-20T05:28:12;3.00;;;2.80;;
11267;SDS011;49397;47.474;9.416;2022-11-20T05:30:37;6.50;;;3.30;;
11267;SDS011;49397;47.474;9.416;2022-11-20T05:33:03;4.03;;;3.10;;
11267;SDS011;49397;47.474;9.416;2022-11-20T05:35:28;4.47;;;2.83;;
11267;SDS011;49397;47.474;9.416;2022-11-20T05:37:54;3.37;;;3.10;;
11267;SDS011;49397;47.474;9.416;2022-11-20T05:40:19;3.80;;;3.30;;
11267;SDS011;49397;47.474;9.416;2022-11-20T05:42:44;3.80;;;3.40;;
11267;SDS011;49397;47.474;9.416;2022-11-20T05:45:10;3.57;;;3.27;;
11267;SDS011;49397;47.474;9.416;2022-11-20T05:47:35;7.07;;;3.33;;
11267;SDS011;49397;47.474;9.416;2022-11-20T05:50:01;4.13;;;3.33;;
11267;SDS011;49397;47.474;9.416;2022-11-20T05:52:29;3.63;;;3.20;;
11267;SDS011;49397;47.474;9.416;2022-11-20T05:54:55;3.37;;;3.17;;
11267;SDS011;49397;47.474;9.416;2022-11-20T05:57:21;4.70;;;3.60;;
11267;SDS011;49397;47.474;9.416;2022-11-20T05:59:47;3.27;;;3.03;;
11267;SDS011;49397;47.474;9.416;2022-11-20T06:02:12;3.60;;;3.30;;
11267;SDS011;49397;47.474;9.416;2022-11-20T06:04:38;3.27;;;2.97;;
11267;SDS011;49397;47.474;9.416;2022-11-20T06:07:04;2.77;;;2.57;;
11267;SDS011;49397;47.474;9.416;2022-11-20T06:09:30;4.50;;;3.10;;
11267;SDS011;49397;47.474;9.416;2022-11-20T06:11:56;4.83;;;3.27;;
11267;SDS011;49397;47.474;9.416;2022-11-20T06:14:21;3.87;;;2.87;;
11267;SDS011;49397;47.474;9.416;2022-11-20T06:16:47;3.37;;;3.17;;
11267;SDS011;49397;47.474;9.416;2022-11-20T06:19:12;4.13;;;2.77;;
11267;SDS011;49397;47.474;9.416;2022-11-20T06:21:38;2.53;;;2.33;;
11267;SDS011;49397;47.474;9.416;2022-11-20T06:24:03;2.90;;;2.70;;
11267;SDS011;49397;47.474;9.416;2022-11-20T06:26:29;5.13;;;3.23;;
11267;SDS011;49397;47.474;9.416;2022-11-20T06:28:55;3.53;;;3.23;;
11267;SDS011;49397;47.474;9.416;2022-11-20T06:31:23;3.30;;;2.93;;
11267;SDS011;49397;47.474;9.416;2022-11-20T06:33:50;3.57;;;3.20;;
11267;SDS011;49397;47.474;9.416;2022-11-20T06:36:18;3.40;;;3.10;;
11267;SDS011;49397;47.474;9.416;2022-11-20T06:38:45;4.30;;;3.03;;
11267;SDS011;49397;47.474;9.416;2022-11-20T06:41:11;3.13;;;2.83;;
11267;SDS011;49397;47.474;9.416;2022-11-20T06:43:38;4.70;;;2.97;;
11267;SDS011;49397;47.474;9.416;2022-11-20T06:46:04;2.83;;;2.63;;
11267;SDS011;49397;47.474;9.416;2022-11-20T06:48:30;5.87;;;2.97;;
11267;SDS011;49397;47.474;9.416;2022-11-20T06:50:56;3.03;;;2.73;;
11267;SDS011;49397;47.474;9.416;2022-11-20T06:53:22;3.20;;;3.00;;
11267;SDS011;49397;47.474;9.416;2022-11-20T06:55:48;3.00;;;2.80;;
11267;SDS011;49397;47.474;9.416;2022-11-20T06:58:15;3.97;;;2.77;;
11267;SDS011;49397;47.474;9.416;2022-11-20T07:00:41;4.17;;;3.60;;
11267;SDS011;49397;47.474;9.416;2022-11-20T07:03:08;3.47;;;2.93;;
11267;SDS011;49397;47.474;9.416;2022-11-20T07:05:35;5.33;;;3.27;;
11267;SDS011;49397;47.474;9.416;2022-11-20T07:08:01;3.10;;;2.87;;
11267;SDS011;49397;47.474;9.416;2022-11-20T07:10:27;2.70;;;2.50;;
11267;SDS011;49397;47.474;9.416;2022-11-20T07:12:53;3.30;;;3.10;;
11267;SDS011;49397;47.474;9.416;2022-11-20T07:15:19;4.00;;;3.13;;
11267;SDS011;49397;47.474;9.416;2022-11-20T07:17:46;4.63;;;3.00;;
11267;SDS011;49397;47.474;9.416;2022-11-20T07:20:12;3.80;;;3.40;;
11267;SDS011;49397;47.474;9.416;2022-11-20T07:22:38;3.13;;;2.93;;
11267;SDS011;49397;47.474;9.416;2022-11-20T07:25:04;3.53;;;3.13;;
11267;SDS011;49397;47.474;9.416;2022-11-20T07:27:30;3.20;;;2.90;;
11267;SDS011;49397;47.474;9.416;2022-11-20T07:29:55;4.03;;;2.90;;
11267;SDS011;49397;47.474;9.416;2022-11-20T07:32:21;3.90;;;3.40;;
11267;SDS011;49397;47.474;9.416;2022-11-20T07:34:47;4.47;;;3.73;;
11267;SDS011;49397;47.474;9.416;2022-11-20T07:37:13;5.10;;;2.83;;
11267;SDS011;49397;47.474;9.416;2022-11-20T07:39:39;4.13;;;3.13;;
11267;SDS011;49397;47.474;9.416;2022-11-20T07:42:05;3.13;;;2.93;;
11267;SDS011;49397;47.474;9.416;2022-11-20T07:44:32;4.73;;;3.03;;
11267;SDS011;49397;47.474;9.416;2022-11-20T07:46:57;3.77;;;3.30;;
11267;SDS011;49397;47.474;9.416;2022-11-20T07:49:23;3.43;;;3.13;;
11267;SDS011;49397;47.474;9.416;2022-11-20T07:51:51;5.13;;;3.70;;
11267;SDS011;49397;47.474;9.416;2022-11-20T07:54:20;4.43;;;3.20;;
11267;SDS011;49397;47.474;9.416;2022-11-20T07:56:46;3.90;;;3.50;;
11267;SDS011;49397;47.474;9.416;2022-11-20T07:59:13;5.67;;;3.50;;
11267;SDS011;49397;47.474;9.416;2022-11-20T08:01:39;3.73;;;3.30;;
11267;SDS011;49397;47.474;9.416;2022-11-20T08:04:04;3.63;;;3.33;;
11267;SDS011;49397;47.474;9.416;2022-11-20T08:06:30;4.03;;;2.83;;
11267;SDS011;49397;47.474;9.416;2022-11-20T08:08:55;4.37;;;3.20;;
11267;SDS011;49397;47.474;9.416;2022-11-20T08:11:21;4.17;;;3.87;;
11267;SDS011;49397;47.474;9.416;2022-11-20T08:14:05;2.90;;;2.57;;
11267;SDS011;49397;47.474;9.416;2022-11-20T08:16:36;3.87;;;3.20;;
11267;SDS011;49397;47.474;9.416;2022-11-20T08:19:03;3.53;;;3.23;;
11267;SDS011;49397;47.474;9.416;2022-11-20T08:21:29;3.77;;;3.10;;
11267;SDS011;49397;47.474;9.416;2022-11-20T08:23:55;3.07;;;2.87;;
11267;SDS011;49397;47.474;9.416;2022-11-20T08:26:22;3.27;;;2.80;;
11267;SDS011;49397;47.474;9.416;2022-11-20T08:28:48;3.27;;;2.97;;
11267;SDS011;49397;47.474;9.416;2022-11-20T08:31:14;5.17;;;2.83;;
11267;SDS011;49397;47.474;9.416;2022-11-20T08:33:39;2.97;;;2.73;;
11267;SDS011;49397;47.474;9.416;2022-11-20T08:36:05;3.00;;;2.73;;
11267;SDS011;49397;47.474;9.416;2022-11-20T08:38:31;3.23;;;3.03;;
11267;SDS011;49397;47.474;9.416;2022-11-20T08:41:01;3.10;;;2.90;;
11267;SDS011;49397;47.474;9.416;2022-11-20T08:43:47;3.20;;;2.97;;
11267;SDS011;49397;47.474;9.416;2022-11-20T08:46:13;4.00;;;3.03;;
11267;SDS011;49397;47.474;9.416;2022-11-20T08:48:38;4.73;;;2.80;;
11267;SDS011;49397;47.474;9.416;2022-11-20T08:51:04;4.37;;;2.93;;
11267;SDS011;49397;47.474;9.416;2022-11-20T08:53:30;2.27;;;2.17;;
11267;SDS011;49397;47.474;9.416;2022-11-20T08:55:58;4.03;;;2.63;;
11267;SDS011;49397;47.474;9.416;2022-11-20T08:58:24;3.23;;;2.60;;
11267;SDS011;49397;47.474;9.416;2022-11-20T09:00:51;3.37;;;3.07;;
11267;SDS011;49397;47.474;9.416;2022-11-20T09:03:16;3.63;;;2.30;;
11267;SDS011;49397;47.474;9.416;2022-11-20T09:05:42;2.60;;;2.47;;
11267;SDS011;49397;47.474;9.416;2022-11-20T09:08:08;2.40;;;2.20;;
11267;SDS011;49397;47.474;9.416;2022-11-20T09:10:34;5.23;;;2.47;;
11267;SDS011;49397;47.474;9.416;2022-11-20T09:12:59;2.30;;;2.10;;
11267;SDS011;49397;47.474;9.416;2022-11-20T09:15:25;2.97;;;2.30;;
11267;SDS011;49397;47.474;9.416;2022-11-20T09:17:54;2.70;;;2.50;;
11267;SDS011;49397;47.474;9.416;2022-11-20T09:20:21;3.30;;;2.20;;
11267;SDS011;49397;47.474;9.416;2022-11-20T09:22:47;2.67;;;2.47;;
11267;SDS011;49397;47.474;9.416;2022-11-20T09:25:12;2.40;;;2.30;;
11267;SDS011;49397;47.474;9.416;2022-11-20T09:27:38;2.47;;;2.30;;
11267;SDS011;49397;47.474;9.416;2022-11-20T09:30:03;2.47;;;2.27;;
11267;SDS011;49397;47.474;9.416;2022-11-20T09:32:29;4.03;;;2.60;;
11267;SDS011;49397;47.474;9.416;2022-11-20T09:34:55;2.50;;;2.40;;
11267;SDS011;49397;47.474;9.416;2022-11-20T09:37:20;3.10;;;2.73;;
11267;SDS011;49397;47.474;9.416;2022-11-20T09:39:46;2.20;;;2.10;;
11267;SDS011;49397;47.474;9.416;2022-11-20T09:44:45;2.17;;;1.97;;
11267;SDS011;49397;47.474;9.416;2022-11-20T09:50:24;2.53;;;2.33;;
11267;SDS011;49397;47.474;9.416;2022-11-20T09:53:07;1.90;;;1.80;;
11267;SDS011;49397;47.474;9.416;2022-11-20T09:55:46;2.10;;;2.00;;
11267;SDS011;49397;47.474;9.416;2022-11-20T09:58:15;2.87;;;2.30;;
11267;SDS011;49397;47.474;9.416;2022-11-20T10:00:50;2.33;;;2.23;;
11267;SDS011;49397;47.474;9.416;2022-11-20T10:03:19;1.90;;;1.80;;
11267;SDS011;49397;47.474;9.416;2022-11-20T10:06:18;1.90;;;1.80;;
11267;SDS011;49397;47.474;9.416;2022-11-20T10:08:55;1.90;;;1.80;;
11267;SDS011;49397;47.474;9.416;2022-11-20T10:19:43;2.10;;;2.00;;
11267;SDS011;49397;47.474;9.416;2022-11-20T10:24:56;1.90;;;1.80;;
11267;SDS011;49397;47.474;9.416;2022-11-20T10:27:56;2.00;;;1.90;;
11267;SDS011;49397;47.474;9.416;2022-11-20T10:30:43;1.90;;;1.80;;
11267;SDS011;49397;47.474;9.416;2022-11-20T10:33:21;1.87;;;1.77;;
11267;SDS011;49397;47.474;9.416;2022-11-20T10:35:57;1.80;;;1.70;;
11267;SDS011;49397;47.474;9.416;2022-11-20T10:38:31;2.70;;;2.37;;
11267;SDS011;49397;47.474;9.416;2022-11-20T10:41:00;1.70;;;1.60;;
11267;SDS011;49397;47.474;9.416;2022-11-20T10:43:46;1.83;;;1.73;;
11267;SDS011;49397;47.474;9.416;2022-11-20T10:46:20;1.77;;;1.67;;
11267;SDS011;49397;47.474;9.416;2022-11-20T10:48:51;2.33;;;2.23;;
11267;SDS011;49397;47.474;9.416;2022-11-20T10:54:19;1.90;;;1.80;;
11267;SDS011;49397;47.474;9.416;2022-11-20T10:56:56;1.57;;;1.47;;
11267;SDS011;49397;47.474;9.416;2022-11-20T11:02:41;1.97;;;1.87;;
11267;SDS011;49397;47.474;9.416;2022-11-20T11:05:27;2.17;;;1.97;;
11267;SDS011;49397;47.474;9.416;2022-11-20T11:08:16;1.73;;;1.73;;
11267;SDS011;49397;47.474;9.416;2022-11-20T11:10:53;2.23;;;2.03;;
11267;SDS011;49397;47.474;9.416;2022-11-20T11:13:23;2.60;;;2.40;;
11267;SDS011;49397;47.474;9.416;2022-11-20T11:15:50;1.97;;;1.87;;
11267;SDS011;49397;47.474;9.416;2022-11-20T11:18:27;1.83;;;1.73;;
11267;SDS011;49397;47.474;9.416;2022-11-20T11:20:57;1.73;;;1.70;;
11267;SDS011;49397;47.474;9.416;2022-11-20T11:23:31;1.90;;;1.80;;
11267;SDS011;49397;47.474;9.416;2022-11-20T11:26:02;1.70;;;1.60;;
11267;SDS011;49397;47.474;9.416;2022-11-20T11:28:29;2.33;;;2.23;;
11267;SDS011;49397;47.474;9.416;2022-11-20T11:30:55;2.10;;;2.00;;
11267;SDS011;49397;47.474;9.416;2022-11-20T11:33:25;2.10;;;2.00;;
11267;SDS011;49397;47.474;9.416;2022-11-20T11:35:53;1.73;;;1.73;;
11267;SDS011;49397;47.474;9.416;2022-11-20T11:38:30;1.80;;;1.70;;
11267;SDS011;49397;47.474;9.416;2022-11-20T11:41:00;2.33;;;2.20;;
11267;SDS011;49397;47.474;9.416;2022-11-20T11:43:28;2.10;;;2.00;;
11267;SDS011;49397;47.474;9.416;2022-11-20T11:46:29;2.13;;;2.03;;
11267;SDS011;49397;47.474;9.416;2022-11-20T11:54:24;2.10;;;2.00;;
11267;SDS011;49397;47.474;9.416;2022-11-20T11:56:53;2.70;;;1.90;;
11267;SDS011;49397;47.474;9.416;2022-11-20T11:59:25;1.90;;;1.77;;
11267;SDS011;49397;47.474;9.416;2022-11-20T12:01:57;2.10;;;2.00;;
11267;SDS011;49397;47.474;9.416;2022-11-20T12:07:23;2.13;;;2.03;;
11267;SDS011;49397;47.474;9.416;2022-11-20T12:10:03;2.00;;;1.90;;
11267;SDS011;49397;47.474;9.416;2022-11-20T12:12:42;1.90;;;1.80;;
11267;SDS011;49397;47.474;9.416;2022-11-20T12:15:16;2.07;;;1.97;;
11267;SDS011;49397;47.474;9.416;2022-11-20T12:17:58;2.10;;;2.00;;
11267;SDS011;49397;47.474;9.416;2022-11-20T12:20:25;2.17;;;1.93;;
11267;SDS011;49397;47.474;9.416;2022-11-20T12:23:18;1.77;;;1.67;;
11267;SDS011;49397;47.474;9.416;2022-11-20T12:25:50;1.77;;;1.67;;
11267;SDS011;49397;47.474;9.416;2022-11-20T12:31:03;2.87;;;1.97;;
11267;SDS011;49397;47.474;9.416;2022-11-20T12:33:53;1.90;;;1.80;;
11267;SDS011;49397;47.474;9.416;2022-11-20T12:45:14;1.87;;;1.77;;
11267;SDS011;49397;47.474;9.416;2022-11-20T13:06:41;2.00;;;1.90;;
11267;SDS011;49397;47.474;9.416;2022-11-20T13:09:11;2.87;;;1.87;;
11267;SDS011;49397;47.474;9.416;2022-11-20T13:12:40;2.20;;;2.10;;
11267;SDS011;49397;47.474;9.416;2022-11-20T13:14:40;1.77;;;1.67;;
11267;SDS011;49397;47.474;9.416;2022-11-20T13:19:56;2.10;;;2.00;;
11267;SDS011;49397;47.474;9.416;2022-11-20T13:22:42;2.17;;;2.00;;
11267;SDS011;49397;47.474;9.416;2022-11-20T13:25:30;2.00;;;1.90;;
11267;SDS011;49397;47.474;9.416;2022-11-20T13:27:58;3.17;;;2.20;;
11267;SDS011;49397;47.474;9.416;2022-11-20T13:30:26;2.20;;;2.10;;
11267;SDS011;49397;47.474;9.416;2022-11-20T13:35:26;1.83;;;1.73;;
11267;SDS011;49397;47.474;9.416;2022-11-20T13:40:36;2.40;;;1.90;;
11267;SDS011;49397;47.474;9.416;2022-11-20T13:45:54;1.97;;;1.87;;
11267;SDS011;49397;47.474;9.416;2022-11-20T13:48:25;2.10;;;2.00;;
11267;SDS011;49397;47.474;9.416;2022-11-20T13:51:12;1.90;;;1.80;;
11267;SDS011;49397;47.474;9.416;2022-11-20T13:59:31;2.03;;;1.93;;
11267;SDS011;49397;47.474;9.416;2022-11-20T14:02:10;3.53;;;3.23;;
11267;SDS011;49397;47.474;9.416;2022-11-20T14:04:45;4.60;;;3.10;;
11267;SDS011;49397;47.474;9.416;2022-11-20T14:07:12;3.67;;;2.60;;
11267;SDS011;49397;47.474;9.416;2022-11-20T14:09:39;5.33;;;3.10;;
11267;SDS011;49397;47.474;9.416;2022-11-20T14:12:15;4.20;;;2.70;;
11267;SDS011;49397;47.474;9.416;2022-11-20T14:14:47;2.53;;;2.33;;
11267;SDS011;49397;47.474;9.416;2022-11-20T14:17:19;2.23;;;2.13;;
11267;SDS011;49397;47.474;9.416;2022-11-20T14:19:47;2.00;;;1.90;;
11267;SDS011;49397;47.474;9.416;2022-11-20T14:22:19;2.13;;;1.93;;
11267;SDS011;49397;47.474;9.416;2022-11-20T14:25:00;2.00;;;1.90;;
11267;SDS011;49397;47.474;9.416;2022-11-20T14:27:28;1.93;;;1.83;;
11267;SDS011;49397;47.474;9.416;2022-11-20T14:29:54;2.27;;;1.97;;
11267;SDS011;49397;47.474;9.416;2022-11-20T14:32:21;2.00;;;1.90;;
11267;SDS011;49397;47.474;9.416;2022-11-20T14:34:51;2.27;;;2.17;;
11267;SDS011;49397;47.474;9.416;2022-11-20T14:37:18;2.23;;;2.13;;
11267;SDS011;49397;47.474;9.416;2022-11-20T14:39:50;1.77;;;1.67;;
11267;SDS011;49397;47.474;9.416;2022-11-20T14:42:19;1.97;;;1.87;;
11267;SDS011;49397;47.474;9.416;2022-11-20T14:44:47;2.10;;;2.00;;
11267;SDS011;49397;47.474;9.416;2022-11-20T14:47:15;1.93;;;1.80;;
11267;SDS011;49397;47.474;9.416;2022-11-20T14:49:45;2.10;;;2.03;;
11267;SDS011;49397;47.474;9.416;2022-11-20T14:52:13;2.27;;;2.17;;
11267;SDS011;49397;47.474;9.416;2022-11-20T14:54:44;3.23;;;1.83;;
11267;SDS011;49397;47.474;9.416;2022-11-20T14:57:34;2.13;;;2.03;;
11267;SDS011;49397;47.474;9.416;2022-11-20T15:00:34;2.07;;;1.97;;
11267;SDS011;49397;47.474;9.416;2022-11-20T15:02:54;1.93;;;1.77;;
11267;SDS011;49397;47.474;9.416;2022-11-20T15:05:21;1.90;;;1.80;;
11267;SDS011;49397;47.474;9.416;2022-11-20T15:07:50;2.20;;;1.60;;
11267;SDS011;49397;47.474;9.416;2022-11-20T15:10:29;1.90;;;1.80;;
11267;SDS011;49397;47.474;9.416;2022-11-20T15:12:56;1.73;;;1.63;;
11267;SDS011;49397;47.474;9.416;2022-11-20T15:17:53;2.00;;;1.87;;
11267;SDS011;49397;47.474;9.416;2022-11-20T15:20:19;2.03;;;1.83;;
11267;SDS011;49397;47.474;9.416;2022-11-20T15:22:48;1.90;;;1.80;;
11267;SDS011;49397;47.474;9.416;2022-11-20T15:25:14;2.07;;;1.97;;
11267;SDS011;49397;47.474;9.416;2022-11-20T15:27:42;1.83;;;1.73;;
11267;SDS011;49397;47.474;9.416;2022-11-20T15:30:18;1.87;;;1.77;;
11267;SDS011;49397;47.474;9.416;2022-11-20T15:32:45;1.93;;;1.83;;
11267;SDS011;49397;47.474;9.416;2022-11-20T15:35:11;4.87;;;1.90;;
11267;SDS011;49397;47.474;9.416;2022-11-20T15:37:37;1.97;;;1.87;;
11267;SDS011;49397;47.474;9.416;2022-11-20T15:40:04;1.80;;;1.80;;
11267;SDS011;49397;47.474;9.416;2022-11-20T15:42:30;2.50;;;2.30;;
11267;SDS011;49397;47.474;9.416;2022-11-20T15:44:55;1.90;;;1.80;;
11267;SDS011;49397;47.474;9.416;2022-11-20T15:47:23;1.80;;;1.70;;
11267;SDS011;49397;47.474;9.416;2022-11-20T15:49:52;1.97;;;1.87;;
11267;SDS011;49397;47.474;9.416;2022-11-20T15:52:18;2.73;;;2.10;;
11267;SDS011;49397;47.474;9.416;2022-11-20T15:54:43;2.00;;;1.90;;
11267;SDS011;49397;47.474;9.416;2022-11-20T15:57:08;2.20;;;2.10;;
11267;SDS011;49397;47.474;9.416;2022-11-20T15:59:34;2.13;;;2.00;;
11267;SDS011;49397;47.474;9.416;2022-11-20T16:02:02;2.20;;;2.10;;
11267;SDS011;49397;47.474;9.416;2022-11-20T16:04:27;2.10;;;2.00;;
11267;SDS011;49397;47.474;9.416;2022-11-20T16:06:53;2.10;;;2.00;;
11267;SDS011;49397;47.474;9.416;2022-11-20T16:09:18;2.50;;;2.30;;
11267;SDS011;49397;47.474;9.416;2022-11-20T16:11:44;2.30;;;2.20;;
11267;SDS011;49397;47.474;9.416;2022-11-20T16:14:10;2.07;;;1.97;;
11267;SDS011;49397;47.474;9.416;2022-11-20T16:16:54;1.93;;;1.83;;
11267;SDS011;49397;47.474;9.416;2022-11-20T16:19:20;2.60;;;2.40;;
11267;SDS011;49397;47.474;9.416;2022-11-20T16:21:45;2.30;;;2.20;;
11267;SDS011;49397;47.474;9.416;2022-11-20T16:24:12;2.27;;;2.13;;